createdAt,value
2017-11-25T00:00:44.531Z,41.10
2017-11-25T00:01:44.559Z,45.10
2017-11-25T00:02:44.593Z,42.50
2017-11-25T00:03:44.627Z,44.00
2017-11-25T00:04:44.676Z,44.00
2017-11-25T00:05:44.696Z,42.80
2017-11-25T00:06:44.735Z,42.00
2017-11-25T00:07:44.768Z,40.50
2017-11-25T00:08:44.803Z,44.90
2017-11-25T00:09:44.838Z,43.50
2017-11-25T00:10:44.874Z,42.90
2017-11-25T00:11:44.904Z,46.50
2017-11-25T00:12:44.939Z,44.20
2017-11-25T00:13:44.974Z,50.00
2017-11-25T00:14:45.017Z,49.30
2017-11-25T00:15:45.049Z,47.60
2017-11-25T00:16:45.080Z,46.90
2017-11-25T00:17:45.115Z,56.20
2017-11-25T00:18:45.146Z,62.80
2017-11-25T00:19:45.184Z,60.50
2017-11-25T00:20:45.216Z,64.80
2017-11-25T00:21:45.255Z,69.00
2017-11-25T00:22:45.288Z,67.40
2017-11-25T00:23:45.319Z,66.90
2017-11-25T00:24:45.357Z,68.00
2017-11-25T00:25:45.389Z,64.20
2017-11-25T00:26:45.424Z,69.70
2017-11-25T00:27:45.460Z,59.10
2017-11-25T00:28:45.495Z,59.90
2017-11-25T00:29:45.527Z,60.70
2017-11-25T00:30:45.565Z,62.10
2017-11-25T00:31:45.611Z,56.60
2017-11-25T00:32:45.634Z,59.70
2017-11-25T00:33:45.717Z,55.70
2017-11-25T00:34:45.701Z,59.30
2017-11-25T00:35:45.738Z,58.20
2017-11-25T00:36:45.772Z,57.30
2017-11-25T00:37:45.805Z,61.20
2017-11-25T00:38:45.840Z,63.40
2017-11-25T00:39:45.875Z,67.90
2017-11-25T00:40:45.912Z,63.60
2017-11-25T00:41:45.947Z,60.60
2017-11-25T00:42:46.106Z,63.70
2017-11-25T00:43:46.018Z,51.80
2017-11-25T00:44:46.059Z,56.20
2017-11-25T00:45:46.088Z,55.00
2017-11-25T00:46:46.116Z,54.10
2017-11-25T00:47:46.151Z,57.10
2017-11-25T00:48:46.187Z,52.00
2017-11-25T00:49:46.220Z,56.10
2017-11-25T00:50:46.257Z,55.90
2017-11-25T00:51:46.627Z,56.90
2017-11-25T00:52:46.333Z,57.20
2017-11-25T00:53:46.412Z,51.30
2017-11-25T00:54:46.395Z,49.40
2017-11-25T00:55:46.429Z,53.30
2017-11-25T00:56:46.466Z,52.10
2017-11-25T00:57:46.495Z,69.70
2017-11-25T00:58:46.532Z,59.70
2017-11-25T00:59:46.569Z,62.70
2017-11-25T01:00:46.661Z,74.00
2017-11-25T01:01:46.637Z,84.10
2017-11-25T01:02:46.691Z,87.00
2017-11-25T01:03:46.707Z,74.90
2017-11-25T01:04:46.740Z,80.40
2017-11-25T01:05:46.777Z,79.80
2017-11-25T01:06:46.810Z,63.10
2017-11-25T01:07:46.846Z,68.20
2017-11-25T01:08:46.883Z,63.20
2017-11-25T01:09:46.915Z,66.70
2017-11-25T01:10:46.947Z,65.50
2017-11-25T01:11:46.986Z,61.20
2017-11-25T01:12:47.020Z,60.60
2017-11-25T01:13:47.053Z,59.40
2017-11-25T01:14:47.091Z,62.90
2017-11-25T01:15:47.123Z,59.10
2017-11-25T01:16:47.158Z,60.80
2017-11-25T01:17:47.193Z,62.40
2017-11-25T01:18:47.229Z,54.40
2017-11-25T01:19:47.269Z,50.50
2017-11-25T01:20:47.298Z,46.00
2017-11-25T01:21:47.331Z,46.20
2017-11-25T01:22:47.369Z,56.70
2017-11-25T01:23:47.401Z,64.20
2017-11-25T01:24:47.453Z,65.20
2017-11-25T01:25:47.481Z,85.70
2017-11-25T01:26:47.509Z,83.40
2017-11-25T01:27:47.541Z,70.70
2017-11-25T01:28:47.579Z,70.70
2017-11-25T01:29:47.609Z,67.40
2017-11-25T01:30:47.648Z,77.00
2017-11-25T01:31:47.681Z,79.30
2017-11-25T01:32:47.739Z,78.90
2017-11-25T01:33:47.748Z,74.50
2017-11-25T01:34:47.784Z,63.80
2017-11-25T01:35:47.819Z,65.20
2017-11-25T01:36:47.855Z,66.70
2017-11-25T01:37:47.896Z,64.90
2017-11-25T01:38:47.999Z,71.90
2017-11-25T01:39:47.961Z,69.10
2017-11-25T01:40:47.994Z,77.40
2017-11-25T01:41:48.030Z,74.60
2017-11-25T01:42:48.063Z,73.70
2017-11-25T01:43:48.104Z,74.90
2017-11-25T01:44:48.132Z,82.20
2017-11-25T01:45:48.172Z,88.30
2017-11-25T01:46:48.200Z,89.90
2017-11-25T01:47:48.617Z,80.30
2017-11-25T01:48:48.270Z,83.50
2017-11-25T01:49:48.368Z,84.90
2017-11-25T01:50:48.339Z,76.00
2017-11-25T01:51:48.383Z,76.70
2017-11-25T01:52:48.425Z,69.00
2017-11-25T01:53:48.450Z,70.30
2017-11-25T01:54:48.482Z,75.80
2017-11-25T01:55:48.513Z,75.20
2017-11-25T01:56:48.564Z,81.50
2017-11-25T01:57:48.590Z,72.20
2017-11-25T01:58:48.669Z,79.80
2017-11-25T01:59:48.654Z,80.40
2017-11-25T02:00:48.691Z,81.00
2017-11-25T02:01:48.721Z,99.10
2017-11-25T02:02:48.755Z,77.50
2017-11-25T02:03:48.798Z,88.10
2017-11-25T02:04:48.826Z,90.70
2017-11-25T02:05:48.862Z,76.20
2017-11-25T02:06:48.893Z,77.50
2017-11-25T02:07:48.931Z,72.40
2017-11-25T02:08:48.967Z,81.30
2017-11-25T02:09:49.002Z,77.50
2017-11-25T02:10:49.031Z,77.60
2017-11-25T02:11:49.070Z,73.90
2017-11-25T02:12:49.102Z,75.20
2017-11-25T02:13:49.134Z,93.00
2017-11-25T02:14:49.172Z,87.00
2017-11-25T02:15:49.205Z,85.70
2017-11-25T02:16:49.238Z,73.20
2017-11-25T02:17:49.287Z,70.40
2017-11-25T02:18:49.306Z,74.70
2017-11-25T02:19:49.343Z,86.80
2017-11-25T02:20:49.376Z,72.80
2017-11-25T02:21:49.412Z,66.90
2017-11-25T02:22:49.448Z,65.40
2017-11-25T02:23:49.486Z,60.20
2017-11-25T02:24:49.518Z,62.10
2017-11-25T02:25:49.553Z,58.50
2017-11-25T02:26:49.584Z,70.80
2017-11-25T02:27:49.619Z,72.00
2017-11-25T02:28:49.654Z,71.40
2017-11-25T02:29:49.686Z,66.30
2017-11-25T02:30:49.723Z,63.20
2017-11-25T02:31:49.755Z,61.00
2017-11-25T02:32:49.829Z,42.30
2017-11-25T02:33:49.823Z,58.90
2017-11-25T02:34:49.866Z,63.60
2017-11-25T02:35:49.894Z,79.10
2017-11-25T02:36:49.928Z,86.70
2017-11-25T02:37:49.963Z,87.00
2017-11-25T02:38:49.997Z,79.20
2017-11-25T02:39:50.034Z,71.30
2017-11-25T02:40:50.069Z,66.40
2017-11-25T02:41:50.103Z,60.80
2017-11-25T02:42:50.137Z,54.20
2017-11-25T02:43:50.496Z,54.60
2017-11-25T02:44:50.204Z,56.10
2017-11-25T02:45:50.246Z,51.50
2017-11-25T02:46:50.274Z,47.90
2017-11-25T02:47:50.308Z,48.80
2017-11-25T02:48:50.344Z,46.10
2017-11-25T02:49:50.377Z,58.40
2017-11-25T02:50:50.414Z,46.10
2017-11-25T02:51:50.449Z,52.90
2017-11-25T02:52:50.510Z,48.80
2017-11-25T02:53:50.514Z,48.80
2017-11-25T02:54:50.557Z,47.30
2017-11-25T02:55:50.585Z,50.70
2017-11-25T02:56:50.619Z,55.30
2017-11-25T02:57:50.655Z,56.50
2017-11-25T02:58:50.688Z,68.10
2017-11-25T02:59:50.722Z,72.90
2017-11-25T03:00:50.757Z,78.50
2017-11-25T03:01:50.797Z,72.50
2017-11-25T03:02:50.826Z,70.40
2017-11-25T03:03:50.860Z,77.40
2017-11-25T03:04:50.897Z,83.30
2017-11-25T03:05:50.932Z,70.90
2017-11-25T03:06:50.966Z,64.10
2017-11-25T03:07:50.999Z,66.20
2017-11-25T03:08:51.036Z,71.50
2017-11-25T03:09:51.074Z,69.70
2017-11-25T03:10:51.105Z,62.40
2017-11-25T03:11:51.150Z,53.70
2017-11-25T03:12:51.171Z,54.10
2017-11-25T03:13:51.205Z,56.60
2017-11-25T03:14:51.248Z,66.70
2017-11-25T03:15:51.275Z,56.10
2017-11-25T03:16:51.310Z,61.90
2017-11-25T03:17:51.345Z,67.90
2017-11-25T03:18:51.378Z,77.90
2017-11-25T03:19:51.416Z,88.90
2017-11-25T03:20:51.452Z,104.50
2017-11-25T03:21:51.486Z,107.60
2017-11-25T03:22:51.517Z,102.60
2017-11-25T03:23:51.550Z,87.70
2017-11-25T03:24:51.586Z,77.00
2017-11-25T03:25:51.617Z,75.00
2017-11-25T03:26:51.657Z,79.50
2017-11-25T03:27:51.688Z,77.50
2017-11-25T03:28:51.736Z,74.00
2017-11-25T03:29:51.764Z,70.50
2017-11-25T03:30:51.796Z,70.40
2017-11-25T03:31:51.827Z,66.10
2017-11-25T03:32:51.872Z,68.40
2017-11-25T03:33:51.917Z,67.30
2017-11-25T03:34:51.933Z,80.60
2017-11-25T03:35:51.967Z,74.40
2017-11-25T03:36:52.000Z,76.10
2017-11-25T03:37:52.123Z,69.10
2017-11-25T03:38:52.071Z,68.60
2017-11-25T03:39:52.108Z,62.10
2017-11-25T03:40:52.136Z,65.20
2017-11-25T03:41:52.178Z,62.00
2017-11-25T03:42:52.208Z,55.20
2017-11-25T03:43:52.243Z,64.00
2017-11-25T03:44:52.279Z,59.30
2017-11-25T03:45:52.309Z,54.10
2017-11-25T03:46:52.363Z,51.90
2017-11-25T03:47:52.379Z,50.00
2017-11-25T03:48:52.425Z,50.40
2017-11-25T03:49:52.449Z,49.50
2017-11-25T03:50:52.483Z,50.80
2017-11-25T03:51:52.518Z,49.90
2017-11-25T03:52:52.551Z,45.60
2017-11-25T03:53:52.591Z,48.10
2017-11-25T03:54:52.621Z,45.10
2017-11-25T03:55:52.663Z,46.40
2017-11-25T03:56:52.691Z,49.10
2017-11-25T03:57:52.725Z,49.20
2017-11-25T03:58:52.766Z,48.10
2017-11-25T03:59:52.794Z,55.70
2017-11-25T04:00:52.829Z,53.10
2017-11-25T04:01:52.861Z,47.40
2017-11-25T04:02:52.911Z,46.10
2017-11-25T04:03:52.933Z,43.70
2017-11-25T04:04:52.969Z,50.50
2017-11-25T04:05:53.002Z,46.30
2017-11-25T04:06:53.035Z,44.70
2017-11-25T04:07:53.075Z,40.50
2017-11-25T04:08:53.105Z,42.90
2017-11-25T04:09:53.143Z,43.30
2017-11-25T04:10:53.174Z,51.40
2017-11-25T04:11:53.229Z,61.20
2017-11-25T04:12:53.241Z,50.20
2017-11-25T04:13:53.275Z,38.40
2017-11-25T04:14:53.312Z,41.00
2017-11-25T04:15:53.344Z,38.70
2017-11-25T04:16:53.381Z,32.70
2017-11-25T04:17:53.413Z,29.90
2017-11-25T04:18:53.451Z,30.10
2017-11-25T04:19:53.483Z,29.50
2017-11-25T04:20:53.519Z,25.00
2017-11-25T04:21:53.551Z,24.50
2017-11-25T04:22:53.636Z,23.10
2017-11-25T04:23:53.620Z,24.30
2017-11-25T04:24:53.654Z,27.50
2017-11-25T04:25:53.691Z,29.40
2017-11-25T04:26:53.729Z,35.20
2017-11-25T04:27:53.761Z,35.70
2017-11-25T04:28:53.794Z,34.60
2017-11-25T04:29:53.825Z,35.90
2017-11-25T04:30:53.864Z,35.10
2017-11-25T04:31:53.896Z,33.30
2017-11-25T04:32:53.930Z,32.50
2017-11-25T04:33:54.027Z,32.20
2017-11-25T04:34:54.001Z,30.30
2017-11-25T04:35:54.036Z,36.00
2017-11-25T04:36:54.071Z,36.90
2017-11-25T04:37:54.102Z,37.20
2017-11-25T04:38:54.136Z,40.00
2017-11-25T04:39:54.172Z,48.70
2017-11-25T04:40:54.218Z,48.40
2017-11-25T04:41:54.242Z,41.20
2017-11-25T04:42:54.294Z,44.50
2017-11-25T04:43:54.310Z,49.50
2017-11-25T04:44:54.362Z,42.40
2017-11-25T04:45:54.378Z,42.10
2017-11-25T04:46:54.412Z,47.20
2017-11-25T04:47:54.452Z,47.80
2017-11-25T04:48:54.484Z,46.90
2017-11-25T04:49:54.517Z,41.60
2017-11-25T04:50:54.552Z,41.80
2017-11-25T04:51:54.599Z,39.60
2017-11-25T04:52:54.623Z,37.70
2017-11-25T04:53:54.672Z,38.60
2017-11-25T04:54:54.691Z,36.60
2017-11-25T04:55:54.733Z,36.80
2017-11-25T04:56:54.774Z,43.80
2017-11-25T04:57:54.795Z,49.30
2017-11-25T04:58:54.833Z,38.00
2017-11-25T04:59:54.869Z,37.40
2017-11-25T05:00:54.899Z,40.60
2017-11-25T05:01:54.941Z,35.80
2017-11-25T05:02:54.967Z,33.00
2017-11-25T05:03:55.002Z,40.80
2017-11-25T05:04:55.047Z,37.30
2017-11-25T05:05:55.079Z,38.00
2017-11-25T05:06:55.108Z,36.10
2017-11-25T05:07:55.142Z,33.80
2017-11-25T05:08:55.178Z,37.60
2017-11-25T05:09:55.210Z,35.30
2017-11-25T05:10:55.247Z,37.90
2017-11-25T05:11:55.283Z,37.60
2017-11-25T05:12:55.316Z,38.40
2017-11-25T05:13:55.351Z,43.40
2017-11-25T05:14:55.388Z,43.20
2017-11-25T05:15:55.424Z,49.30
2017-11-25T05:16:55.462Z,45.80
2017-11-25T05:17:55.494Z,47.20
2017-11-25T05:18:55.524Z,43.80
2017-11-25T05:19:55.560Z,48.20
2017-11-25T05:20:55.597Z,43.90
2017-11-25T05:21:55.630Z,42.80
2017-11-25T05:22:55.678Z,43.70
2017-11-25T05:23:55.701Z,41.20
2017-11-25T05:24:55.735Z,45.00
2017-11-25T05:25:55.767Z,43.50
2017-11-25T05:26:55.806Z,52.40
2017-11-25T05:27:55.838Z,53.20
2017-11-25T05:28:55.906Z,42.70
2017-11-25T05:29:56.279Z,41.70
2017-11-25T05:30:55.943Z,45.60
2017-11-25T05:31:55.979Z,42.30
2017-11-25T05:32:56.009Z,43.90
2017-11-25T05:33:56.045Z,45.10
2017-11-25T05:34:56.080Z,47.70
2017-11-25T05:35:56.114Z,55.20
2017-11-25T05:36:56.150Z,49.50
2017-11-25T05:37:56.186Z,53.40
2017-11-25T05:38:56.325Z,66.10
2017-11-25T05:39:56.262Z,56.80
2017-11-25T05:40:56.289Z,58.80
2017-11-25T05:41:56.324Z,45.30
2017-11-25T05:42:56.359Z,56.30
2017-11-25T05:43:56.395Z,60.80
2017-11-25T05:44:56.428Z,61.20
2017-11-25T05:45:56.459Z,65.30
2017-11-25T05:46:56.499Z,62.10
2017-11-25T05:47:56.582Z,63.90
2017-11-25T05:48:56.568Z,64.50
2017-11-25T05:49:56.602Z,64.80
2017-11-25T05:50:56.654Z,63.80
2017-11-25T05:51:56.667Z,78.90
2017-11-25T05:52:56.701Z,68.80
2017-11-25T05:53:56.737Z,69.90
2017-11-25T05:54:56.772Z,69.30
2017-11-25T05:55:56.806Z,59.50
2017-11-25T05:56:56.839Z,59.00
2017-11-25T05:57:56.877Z,55.70
2017-11-25T05:58:56.909Z,49.10
2017-11-25T05:59:56.943Z,54.00
2017-11-25T06:00:56.982Z,51.40
2017-11-25T06:01:57.009Z,55.10
2017-11-25T06:02:57.047Z,48.90
2017-11-25T06:03:57.083Z,49.00
2017-11-25T06:04:57.117Z,43.90
2017-11-25T06:05:57.147Z,43.20
2017-11-25T06:06:57.182Z,45.60
2017-11-25T06:07:57.217Z,39.60
2017-11-25T06:08:57.249Z,40.20
2017-11-25T06:09:57.289Z,43.70
2017-11-25T06:10:57.319Z,49.70
2017-11-25T06:11:57.358Z,49.60
2017-11-25T06:12:57.387Z,48.60
2017-11-25T06:13:57.422Z,49.80
2017-11-25T06:14:57.457Z,54.30
2017-11-25T06:15:57.490Z,62.30
2017-11-25T06:16:57.529Z,53.90
2017-11-25T06:17:57.558Z,62.30
2017-11-25T06:18:57.594Z,53.40
2017-11-25T06:19:57.630Z,52.20
2017-11-25T06:20:57.665Z,52.10
2017-11-25T06:21:57.699Z,60.40
2017-11-25T06:22:57.731Z,59.30
2017-11-25T06:23:57.835Z,57.00
2017-11-25T06:24:57.801Z,53.10
2017-11-25T06:25:57.888Z,53.00
2017-11-25T06:26:57.868Z,51.00
2017-11-25T06:27:57.902Z,49.70
2017-11-25T06:28:57.938Z,46.50
2017-11-25T06:29:57.973Z,46.00
2017-11-25T06:30:58.008Z,50.30
2017-11-25T06:31:58.041Z,49.40
2017-11-25T06:32:58.110Z,53.80
2017-11-25T06:33:58.109Z,51.50
2017-11-25T06:34:58.190Z,43.20
2017-11-25T06:35:58.180Z,41.40
2017-11-25T06:36:58.212Z,39.30
2017-11-25T06:37:58.243Z,51.10
2017-11-25T06:38:58.286Z,43.30
2017-11-25T06:39:58.323Z,44.00
2017-11-25T06:40:58.352Z,45.20
2017-11-25T06:41:58.385Z,45.80
2017-11-25T06:42:58.419Z,47.60
2017-11-25T06:43:58.472Z,43.40
2017-11-25T06:44:58.484Z,59.20
2017-11-25T06:45:58.521Z,71.40
2017-11-25T06:46:58.553Z,69.90
2017-11-25T06:47:58.590Z,51.50
2017-11-25T06:48:58.622Z,45.30
2017-11-25T06:49:58.661Z,40.40
2017-11-25T06:50:58.692Z,44.90
2017-11-25T06:51:58.724Z,49.50
2017-11-25T06:52:58.760Z,53.80
2017-11-25T06:53:58.796Z,46.10
2017-11-25T06:54:58.830Z,51.40
2017-11-25T06:55:58.863Z,67.60
2017-11-25T06:56:58.900Z,50.50
2017-11-25T06:57:58.935Z,50.90
2017-11-25T06:58:58.965Z,49.80
2017-11-25T06:59:59.002Z,48.00
2017-11-25T07:00:59.041Z,47.70
2017-11-25T07:01:59.072Z,48.20
2017-11-25T07:02:59.104Z,48.50
2017-11-25T07:03:59.143Z,46.90
2017-11-25T07:04:59.178Z,43.20
2017-11-25T07:05:59.207Z,47.20
2017-11-25T07:06:59.242Z,41.40
2017-11-25T07:07:59.280Z,53.40
2017-11-25T07:08:59.311Z,54.30
2017-11-25T07:09:59.343Z,48.00
2017-11-25T07:10:59.386Z,44.40
2017-11-25T07:11:59.419Z,49.20
2017-11-25T07:12:59.452Z,56.60
2017-11-25T07:13:59.486Z,51.20
2017-11-25T07:14:59.522Z,47.30
2017-11-25T07:15:59.552Z,44.20
2017-11-25T07:16:59.588Z,37.10
2017-11-25T07:17:59.621Z,39.90
2017-11-25T07:18:59.656Z,40.50
2017-11-25T07:19:59.713Z,46.50
2017-11-25T07:20:59.725Z,40.60
2017-11-25T07:21:59.761Z,43.00
2017-11-25T07:22:59.794Z,40.90
2017-11-25T07:23:59.833Z,38.90
2017-11-25T07:24:59.865Z,39.80
2017-11-25T07:25:59.902Z,43.40
2017-11-25T07:26:59.934Z,48.20
2017-11-25T07:27:59.974Z,48.70
2017-11-25T07:29:00.029Z,41.30
2017-11-25T07:30:00.036Z,41.80
2017-11-25T07:31:00.078Z,58.70
2017-11-25T07:32:00.106Z,63.10
2017-11-25T07:33:00.143Z,59.00
2017-11-25T07:34:00.174Z,45.10
2017-11-25T07:35:00.208Z,43.50
2017-11-25T07:36:00.246Z,47.00
2017-11-25T07:37:00.280Z,42.10
2017-11-25T07:38:00.328Z,40.20
2017-11-25T07:39:00.368Z,40.10
2017-11-25T07:40:00.437Z,33.50
2017-11-25T07:41:00.421Z,38.40
2017-11-25T07:42:00.452Z,36.80
2017-11-25T07:43:00.485Z,34.30
2017-11-25T07:44:00.525Z,36.10
2017-11-25T07:45:00.557Z,35.20
2017-11-25T07:46:00.597Z,32.00
2017-11-25T07:47:00.629Z,32.70
2017-11-25T07:48:00.659Z,32.70
2017-11-25T07:49:00.708Z,35.20
2017-11-25T07:50:00.730Z,28.90
2017-11-25T07:51:00.766Z,29.90
2017-11-25T07:52:00.798Z,31.50
2017-11-25T07:53:00.836Z,32.20
2017-11-25T07:54:00.874Z,32.00
2017-11-25T07:55:00.902Z,33.00
2017-11-25T07:56:00.937Z,34.00
2017-11-25T07:57:00.974Z,36.40
2017-11-25T07:58:01.007Z,33.90
2017-11-25T07:59:01.047Z,33.20
2017-11-25T08:00:01.077Z,30.70
2017-11-25T08:01:01.118Z,28.60
2017-11-25T08:02:01.147Z,28.20
2017-11-25T08:03:01.184Z,27.90
2017-11-25T08:04:01.217Z,29.40
2017-11-25T08:05:01.250Z,29.30
2017-11-25T08:06:01.284Z,29.70
2017-11-25T08:07:01.320Z,29.90
2017-11-25T08:08:01.357Z,27.90
2017-11-25T08:09:01.399Z,27.90
2017-11-25T08:10:01.431Z,26.40
2017-11-25T08:11:01.458Z,28.90
2017-11-25T08:12:01.495Z,31.30
2017-11-25T08:13:01.531Z,28.50
2017-11-25T08:14:01.573Z,26.80
2017-11-25T08:15:01.603Z,24.40
2017-11-25T08:16:01.636Z,27.30
2017-11-25T08:17:01.671Z,27.40
2017-11-25T08:18:01.706Z,29.00
2017-11-25T08:19:01.740Z,27.10
2017-11-25T08:20:01.777Z,28.00
2017-11-25T08:21:01.809Z,24.40
2017-11-25T08:22:01.846Z,25.50
2017-11-25T08:23:01.881Z,26.80
2017-11-25T08:24:01.916Z,25.40
2017-11-25T08:25:02.277Z,24.40
2017-11-25T08:26:01.986Z,28.20
2017-11-25T08:27:02.054Z,26.70
2017-11-25T08:28:02.056Z,22.70
2017-11-25T08:29:02.089Z,21.30
2017-11-25T08:30:02.141Z,25.40
2017-11-25T08:31:02.159Z,25.40
2017-11-25T08:32:02.196Z,32.90
2017-11-25T08:33:02.230Z,30.30
2017-11-25T08:34:02.335Z,30.00
2017-11-25T08:35:02.297Z,27.10
2017-11-25T08:36:02.336Z,23.20
2017-11-25T08:37:02.372Z,23.80
2017-11-25T08:38:02.401Z,23.90
2017-11-25T08:39:02.453Z,21.00
2017-11-25T08:40:02.477Z,26.20
2017-11-25T08:41:02.508Z,26.90
2017-11-25T08:42:02.543Z,23.70
2017-11-25T08:43:02.590Z,24.80
2017-11-25T08:44:02.613Z,27.10
2017-11-25T08:45:02.652Z,24.30
2017-11-25T08:46:02.682Z,30.00
2017-11-25T08:47:02.722Z,28.00
2017-11-25T08:48:02.758Z,24.50
2017-11-25T08:49:02.798Z,23.40
2017-11-25T08:50:02.829Z,22.20
2017-11-25T08:51:02.866Z,22.70
2017-11-25T08:52:02.898Z,24.70
2017-11-25T08:53:02.932Z,27.70
2017-11-25T08:54:02.965Z,29.90
2017-11-25T08:55:03.000Z,26.50
2017-11-25T08:56:03.043Z,24.40
2017-11-25T08:57:03.069Z,25.60
2017-11-25T08:58:03.103Z,30.40
2017-11-25T08:59:03.138Z,31.10
2017-11-25T09:00:03.172Z,34.00
2017-11-25T09:01:03.208Z,31.90
2017-11-25T09:02:03.244Z,39.00
2017-11-25T09:03:03.281Z,24.00
2017-11-25T09:04:03.315Z,15.90
2017-11-25T09:05:03.348Z,18.00
2017-11-25T09:06:03.384Z,13.10
2017-11-25T09:07:03.420Z,12.30
2017-11-25T09:08:03.457Z,9.90
2017-11-25T09:09:03.490Z,11.30
2017-11-25T09:10:03.524Z,11.90
2017-11-25T09:11:03.560Z,10.80
2017-11-25T09:12:03.593Z,12.50
2017-11-25T09:13:03.671Z,11.20
2017-11-25T09:14:03.670Z,12.80
2017-11-25T09:15:03.701Z,12.80
2017-11-25T09:16:03.737Z,11.00
2017-11-25T09:17:03.776Z,11.50
2017-11-25T09:18:03.811Z,13.50
2017-11-25T09:19:03.949Z,16.30
2017-11-25T09:20:03.870Z,14.60
2017-11-25T09:21:04.244Z,15.20
2017-11-25T09:22:03.940Z,15.40
2017-11-25T09:23:03.977Z,16.70
2017-11-25T09:24:04.013Z,16.60
2017-11-25T09:25:04.044Z,12.90
2017-11-25T09:26:04.083Z,11.50
2017-11-25T09:27:04.110Z,8.40
2017-11-25T09:28:04.252Z,8.40
2017-11-25T09:29:04.180Z,6.60
2017-11-25T09:30:04.270Z,7.40
2017-11-25T09:31:04.512Z,6.90
2017-11-25T09:32:04.332Z,8.60
2017-11-25T09:33:04.318Z,7.40
2017-11-25T09:34:04.360Z,6.20
2017-11-25T09:35:04.383Z,7.80
2017-11-25T09:36:04.416Z,7.40
2017-11-25T09:37:04.773Z,8.40
2017-11-25T09:38:04.492Z,6.20
2017-11-25T09:39:04.595Z,6.90
2017-11-25T09:40:04.559Z,7.00
2017-11-25T09:41:04.591Z,8.90
2017-11-25T09:42:04.622Z,9.60
2017-11-25T09:43:04.653Z,8.40
2017-11-25T09:44:04.686Z,7.40
2017-11-25T09:45:04.722Z,8.60
2017-11-25T09:46:04.758Z,7.30
2017-11-25T09:47:04.792Z,9.10
2017-11-25T09:48:04.829Z,5.60
2017-11-25T09:49:04.857Z,8.10
2017-11-25T09:50:04.967Z,7.00
2017-11-25T09:51:04.920Z,5.60
2017-11-25T09:52:04.966Z,6.60
2017-11-25T09:53:05.056Z,4.90
2017-11-25T09:54:05.021Z,7.50
2017-11-25T09:55:05.053Z,4.40
2017-11-25T09:56:05.087Z,4.70
2017-11-25T09:57:05.125Z,5.20
2017-11-25T09:58:05.155Z,5.00
2017-11-25T09:59:05.248Z,5.10
2017-11-25T10:00:05.227Z,4.90
2017-11-25T10:01:05.255Z,6.10
2017-11-25T10:02:05.295Z,5.10
2017-11-25T10:03:05.322Z,4.80
2017-11-25T10:04:05.359Z,5.30
2017-11-25T10:05:05.393Z,4.20
2017-11-25T10:06:05.425Z,4.00
2017-11-25T10:07:05.465Z,4.70
2017-11-25T10:08:05.491Z,3.70
2017-11-25T10:09:05.528Z,3.30
2017-11-25T10:10:05.558Z,4.70
2017-11-25T10:11:05.600Z,2.80
2017-11-25T10:12:05.625Z,3.60
2017-11-25T10:13:05.659Z,3.70
2017-11-25T10:14:05.694Z,3.70
2017-11-25T10:15:05.740Z,3.70
2017-11-25T10:16:05.762Z,4.50
2017-11-25T10:17:05.799Z,4.80
2017-11-25T10:18:05.829Z,3.80
2017-11-25T10:19:05.863Z,4.80
2017-11-25T10:20:05.893Z,5.50
2017-11-25T10:21:05.925Z,4.80
2017-11-25T10:22:05.966Z,3.90
2017-11-25T10:23:05.994Z,5.10
2017-11-25T10:24:06.024Z,4.20
2017-11-25T10:25:06.064Z,4.60
2017-11-25T10:26:06.154Z,5.20
2017-11-25T10:27:06.126Z,4.50
2017-11-25T10:28:06.157Z,4.40
2017-11-25T10:29:06.199Z,4.50
2017-11-25T10:30:06.231Z,5.10
2017-11-25T10:31:06.255Z,7.40
2017-11-25T10:32:06.295Z,5.30
2017-11-25T10:33:06.325Z,4.00
2017-11-25T10:34:06.360Z,3.10
2017-11-25T10:35:06.490Z,8.40
2017-11-25T10:36:06.426Z,12.00
2017-11-25T10:37:06.466Z,8.20
2017-11-25T10:38:06.492Z,7.10
2017-11-25T10:39:06.526Z,5.80
2017-11-25T10:40:06.574Z,5.70
2017-11-25T10:41:06.596Z,4.30
2017-11-25T10:42:06.626Z,3.20
2017-11-25T10:43:06.660Z,3.40
2017-11-25T10:44:06.749Z,3.20
2017-11-25T10:45:06.725Z,2.90
2017-11-25T10:46:06.778Z,2.60
2017-11-25T10:47:06.797Z,3.40
2017-11-25T10:48:06.831Z,3.10
2017-11-25T10:49:06.860Z,2.90
2017-11-25T10:50:06.896Z,3.20
2017-11-25T10:51:06.926Z,4.00
2017-11-25T10:52:06.958Z,2.60
2017-11-25T10:53:07.000Z,2.40
2017-11-25T10:54:07.450Z,3.20
2017-11-25T10:55:07.085Z,2.70
2017-11-25T10:56:07.095Z,2.80
2017-11-25T10:57:07.126Z,3.30
2017-11-25T10:58:07.160Z,3.40
2017-11-25T10:59:07.191Z,2.80
2017-11-25T11:00:07.229Z,4.90
2017-11-25T11:01:07.263Z,2.50
2017-11-25T11:02:07.296Z,4.50
2017-11-25T11:03:08.532Z,3.50
2017-11-25T11:04:07.360Z,3.00
2017-11-25T11:05:07.396Z,4.90
2017-11-25T11:06:07.426Z,4.20
2017-11-25T11:07:07.458Z,3.10
2017-11-25T11:08:07.497Z,2.90
2017-11-25T11:09:07.529Z,3.50
2017-11-25T11:10:07.566Z,2.90
2017-11-25T11:11:07.599Z,3.60
2017-11-25T11:12:07.635Z,2.40
2017-11-25T11:13:07.660Z,3.30
2017-11-25T11:14:07.706Z,3.30
2017-11-25T11:15:07.727Z,3.10
2017-11-25T11:16:07.759Z,3.30
2017-11-25T11:17:07.799Z,3.30
2017-11-25T11:18:07.829Z,3.80
2017-11-25T11:19:07.879Z,3.00
2017-11-25T11:20:07.892Z,4.10
2017-11-25T11:21:07.965Z,4.20
2017-11-25T11:22:08.039Z,4.70
2017-11-25T11:23:07.991Z,3.30
2017-11-25T11:24:08.027Z,3.30
2017-11-25T11:25:08.059Z,3.40
2017-11-25T11:26:08.090Z,3.30
2017-11-25T11:27:08.132Z,2.60
2017-11-25T11:28:08.171Z,3.20
2017-11-25T11:29:08.202Z,3.60
2017-11-25T11:30:08.229Z,3.80
2017-11-25T11:31:08.388Z,6.00
2017-11-25T11:32:08.293Z,4.70
2017-11-25T11:33:08.331Z,3.80
2017-11-25T11:34:08.355Z,4.50
2017-11-25T11:35:08.391Z,3.20
2017-11-25T11:36:08.422Z,3.70
2017-11-25T11:37:08.457Z,3.50
2017-11-25T11:38:08.490Z,3.10
2017-11-25T11:39:08.529Z,2.80
2017-11-25T11:40:08.577Z,2.70
2017-11-25T11:41:08.590Z,2.50
2017-11-25T11:42:08.673Z,3.80
2017-11-25T11:43:08.652Z,3.60
2017-11-25T11:44:08.689Z,2.80
2017-11-25T11:45:08.723Z,2.80
2017-11-25T11:46:08.760Z,2.80
2017-11-25T11:47:08.788Z,3.40
2017-11-25T11:48:08.823Z,2.20
2017-11-25T11:49:08.852Z,2.10
2017-11-25T11:50:08.885Z,2.60
2017-11-25T11:51:08.919Z,1.90
2017-11-25T11:52:08.953Z,2.70
2017-11-25T11:53:08.993Z,2.80
2017-11-25T11:54:09.020Z,2.10
2017-11-25T11:55:09.050Z,1.80
2017-11-25T11:56:09.086Z,2.30
2017-11-25T11:57:09.121Z,2.00
2017-11-25T11:58:09.152Z,2.30
2017-11-25T11:59:09.184Z,2.50
2017-11-25T12:00:09.215Z,2.50
2017-11-25T12:01:09.250Z,3.10
2017-11-25T12:02:09.282Z,4.40
2017-11-25T12:03:09.323Z,3.40
2017-11-25T12:04:09.349Z,3.20
2017-11-25T12:05:09.381Z,3.30
2017-11-25T12:06:09.413Z,2.60
2017-11-25T12:07:09.456Z,2.80
2017-11-25T12:08:09.481Z,4.20
2017-11-25T12:09:09.516Z,4.80
2017-11-25T12:10:09.550Z,3.00
2017-11-25T12:11:09.583Z,4.30
2017-11-25T12:12:09.617Z,4.40
2017-11-25T12:13:09.646Z,2.80
2017-11-25T12:14:09.685Z,3.50
2017-11-25T12:15:09.722Z,2.80
2017-11-25T12:16:09.747Z,3.00
2017-11-25T12:17:09.776Z,3.10
2017-11-25T12:18:09.911Z,2.50
2017-11-25T12:19:10.157Z,3.10
2017-11-25T12:20:09.913Z,3.20
2017-11-25T12:21:09.906Z,4.50
2017-11-25T12:22:09.942Z,5.50
2017-11-25T12:23:09.975Z,3.60
2017-11-25T12:24:10.008Z,3.90
2017-11-25T12:25:10.055Z,5.20
2017-11-25T12:26:10.073Z,4.20
2017-11-25T12:27:10.109Z,3.90
2017-11-25T12:28:10.143Z,4.00
2017-11-25T12:29:10.256Z,4.00
2017-11-25T12:30:10.203Z,3.40
2017-11-25T12:31:10.239Z,3.00
2017-11-25T12:32:10.277Z,4.30
2017-11-25T12:33:10.303Z,3.10
2017-11-25T12:34:10.337Z,5.60
2017-11-25T12:35:10.367Z,2.80
2017-11-25T12:36:10.401Z,3.10
2017-11-25T12:37:10.445Z,3.60
2017-11-25T12:38:10.787Z,4.20
2017-11-25T12:39:10.499Z,4.50
2017-11-25T12:40:10.551Z,3.70
2017-11-25T12:41:10.562Z,3.90
2017-11-25T12:42:10.596Z,7.00
2017-11-25T12:43:10.633Z,10.90
2017-11-25T12:44:10.666Z,9.40
2017-11-25T12:45:10.696Z,5.30
2017-11-25T12:46:10.734Z,3.90
2017-11-25T12:47:10.767Z,4.30
2017-11-25T12:48:10.790Z,4.60
2017-11-25T12:49:10.842Z,5.30
2017-11-25T12:50:10.857Z,4.40
2017-11-25T12:51:10.889Z,4.40
2017-11-25T12:52:10.922Z,4.90
2017-11-25T12:53:11.286Z,4.40
2017-11-25T12:54:10.989Z,3.90
2017-11-25T12:55:11.020Z,3.50
2017-11-25T12:56:11.054Z,4.60
2017-11-25T12:57:11.088Z,4.50
2017-11-25T12:58:11.118Z,4.80
2017-11-25T12:59:11.151Z,4.50
2017-11-25T13:00:11.184Z,5.20